createdAt,value
2018-09-17T00:01:59.948Z,96122.20
2018-09-17T00:04:34.870Z,96116.94
2018-09-17T00:07:09.556Z,96116.86
2018-09-17T00:09:43.983Z,96118.47
2018-09-17T00:12:18.436Z,96117.66
2018-09-17T00:14:52.791Z,96117.16
2018-09-17T00:17:27.183Z,96118.69
2018-09-17T00:20:01.601Z,96113.64
2018-09-17T00:22:35.873Z,96116.92
2018-09-17T00:25:10.775Z,96113.56
2018-09-17T00:27:45.112Z,96117.73
2018-09-17T00:30:20.184Z,96114.58
2018-09-17T00:32:54.771Z,96109.32
2018-09-17T00:35:29.037Z,96108.22
2018-09-17T00:38:03.847Z,96107.39
2018-09-17T00:40:38.798Z,96111.04
2018-09-17T00:43:13.265Z,96110.38
2018-09-17T00:45:48.275Z,96114.32
2018-09-17T00:48:22.904Z,96117.58
2018-09-17T00:50:57.613Z,96107.05
2018-09-17T00:53:33.239Z,96111.64
2018-09-17T00:56:07.860Z,96113.55
2018-09-17T00:58:42.115Z,96111.72
2018-09-17T01:01:16.587Z,96110.81
2018-09-17T01:03:51.320Z,96105.87
2018-09-17T01:06:26.231Z,96107.08
2018-09-17T01:09:01.460Z,96109.02
2018-09-17T01:11:36.051Z,96103.05
2018-09-17T01:14:10.939Z,96109.77
2018-09-17T01:16:45.615Z,96108.67
2018-09-17T01:19:20.240Z,96106.98
2018-09-17T01:21:54.776Z,96106.06
2018-09-17T01:24:29.524Z,96118.33
2018-09-17T01:27:04.432Z,96111.08
2018-09-17T01:29:39.015Z,96112.42
2018-09-17T01:32:13.702Z,96117.38
2018-09-17T01:34:48.099Z,96114.57
2018-09-17T01:37:22.367Z,96115.61
2018-09-17T01:39:57.148Z,96106.06
2018-09-17T01:42:31.544Z,96108.74
2018-09-17T01:45:06.033Z,96110.56
2018-09-17T01:47:40.763Z,96106.84
2018-09-17T01:50:15.683Z,96098.52
2018-09-17T01:52:49.936Z,96101.15
2018-09-17T01:55:24.743Z,96091.20
2018-09-17T01:57:59.147Z,96089.69
2018-09-17T02:00:33.900Z,96092.88
2018-09-17T02:03:08.747Z,96093.02
2018-09-17T02:05:43.448Z,96095.45
2018-09-17T02:08:18.728Z,96096.32
2018-09-17T02:10:53.643Z,96090.47
2018-09-17T02:13:28.960Z,96093.95
2018-09-17T02:16:03.611Z,96094.77
2018-09-17T02:18:38.116Z,96098.41
2018-09-17T02:21:13.507Z,96099.67
2018-09-17T02:23:48.696Z,96096.67
2018-09-17T02:26:23.244Z,96090.67
2018-09-17T02:28:58.153Z,96089.19
2018-09-17T02:31:32.468Z,96089.09
2018-09-17T02:34:07.189Z,96095.36
2018-09-17T02:36:42.552Z,96102.02
2018-09-17T02:39:17.252Z,96105.45
2018-09-17T02:41:52.342Z,96103.75
2018-09-17T02:44:26.772Z,96102.44
2018-09-17T02:47:01.524Z,96098.33
2018-09-17T02:49:35.905Z,96100.86
2018-09-17T02:52:10.437Z,96100.36
2018-09-17T02:54:45.181Z,96099.55
2018-09-17T02:57:19.587Z,96104.50
2018-09-17T02:59:54.256Z,96106.32
2018-09-17T03:02:28.865Z,96108.44
2018-09-17T03:05:04.205Z,96106.32
2018-09-17T03:07:38.735Z,96112.10
2018-09-17T03:10:13.738Z,96114.31
2018-09-17T03:12:48.995Z,96112.30
2018-09-17T03:15:34.988Z,96112.42
2018-09-17T03:18:09.799Z,96117.67
2018-09-17T03:20:44.591Z,96118.38
2018-09-17T03:23:19.791Z,96109.10
2018-09-17T03:25:54.423Z,96114.35
2018-09-17T03:28:29.042Z,96115.55
2018-09-17T03:31:03.631Z,96126.16
2018-09-17T03:33:38.327Z,96127.55
2018-09-17T03:36:12.641Z,96130.48
2018-09-17T03:38:48.120Z,96135.03
2018-09-17T03:41:22.746Z,96135.43
2018-09-17T03:43:57.622Z,96137.05
2018-09-17T03:46:32.004Z,96139.50
2018-09-17T03:49:07.567Z,96140.28
2018-09-17T03:51:42.601Z,96141.70
2018-09-17T03:54:17.121Z,96141.98
2018-09-17T03:56:51.592Z,96142.00
2018-09-17T03:59:26.274Z,96138.38
2018-09-17T04:02:00.827Z,96142.39
2018-09-17T04:04:35.955Z,96146.16
2018-09-17T04:07:11.479Z,96144.52
2018-09-17T04:09:45.854Z,96142.10
2018-09-17T04:12:20.632Z,96143.89
2018-09-17T04:14:55.183Z,96141.77
2018-09-17T04:17:29.679Z,96145.70
2018-09-17T04:20:05.130Z,96140.80
2018-09-17T04:22:39.556Z,96138.04
2018-09-17T04:25:14.740Z,96143.96
2018-09-17T04:27:49.692Z,96141.84
2018-09-17T04:30:24.348Z,96139.42
2018-09-17T04:32:59.298Z,96146.28
2018-09-17T04:35:34.015Z,96147.09
2018-09-17T04:38:08.324Z,96156.03
2018-09-17T04:40:42.933Z,96156.74
2018-09-17T04:43:17.499Z,96154.36
2018-09-17T04:45:56.439Z,96159.27
2018-09-17T04:48:31.567Z,96162.09
2018-09-17T04:51:06.764Z,96165.92
2018-09-17T04:53:41.452Z,96159.97
2018-09-17T04:56:15.857Z,96167.63
2018-09-17T04:58:50.644Z,96166.83
2018-09-17T05:01:25.247Z,96168.03
2018-09-17T05:03:59.628Z,96165.52
2018-09-17T05:06:33.984Z,96172.27
2018-09-17T05:09:10.136Z,96164.00
2018-09-17T05:11:44.876Z,96166.22
2018-09-17T05:14:19.515Z,96164.54
2018-09-17T05:16:54.072Z,96171.59
2018-09-17T05:19:28.511Z,96175.70
2018-09-17T05:22:02.822Z,96180.07
2018-09-17T05:24:37.631Z,96183.60
2018-09-17T05:27:12.507Z,96182.89
2018-09-17T05:29:47.008Z,96189.15
2018-09-17T05:32:21.474Z,96194.59
2018-09-17T05:34:56.772Z,96200.48
2018-09-17T05:37:31.539Z,96195.53
2018-09-17T05:40:06.272Z,96198.29
2018-09-17T05:42:41.511Z,96198.70
2018-09-17T05:45:16.343Z,96204.34
2018-09-17T05:47:50.764Z,96203.23
2018-09-17T05:50:25.628Z,96212.14
2018-09-17T05:53:00.032Z,96209.61
2018-09-17T05:55:34.417Z,96211.14
2018-09-17T05:58:09.255Z,96211.16
2018-09-17T06:00:43.761Z,96214.89
2018-09-17T06:03:18.667Z,96212.45
2018-09-17T06:05:54.263Z,96214.27
2018-09-17T06:08:29.417Z,96215.98
2018-09-17T06:11:04.200Z,96220.33
2018-09-17T06:13:39.816Z,96215.27
2018-09-17T06:16:14.512Z,96219.63
2018-09-17T06:18:49.944Z,96217.59
2018-09-17T06:21:24.992Z,96214.05
2018-09-17T06:23:59.364Z,96210.33
2018-09-17T06:26:34.403Z,96204.98
2018-09-17T06:29:08.972Z,96209.52
2018-09-17T06:31:43.520Z,96213.94
2018-09-17T06:34:18.196Z,96213.34
2018-09-17T06:36:52.516Z,96220.39
2018-09-17T06:39:27.144Z,96222.48
2018-09-17T06:42:01.669Z,96225.91
2018-09-17T06:44:36.119Z,96227.49
2018-09-17T06:47:10.983Z,96224.73
2018-09-17T06:49:45.441Z,96224.40
2018-09-17T06:52:19.764Z,96222.27
2018-09-17T06:54:54.159Z,96217.47
2018-09-17T06:57:29.007Z,96220.69
2018-09-17T07:00:03.799Z,96225.69
2018-09-17T07:02:38.143Z,96223.55
2018-09-17T07:05:12.768Z,96231.72
2018-09-17T07:07:47.448Z,96226.83
2018-09-17T07:10:22.214Z,96225.20
2018-09-17T07:12:56.823Z,96216.36
2018-09-17T07:15:31.105Z,96214.91
2018-09-17T07:18:06.396Z,96217.89
2018-09-17T07:20:41.315Z,96218.09
2018-09-17T07:23:16.079Z,96222.89
2018-09-17T07:25:50.560Z,96213.39
2018-09-17T07:28:25.312Z,96215.45
2018-09-17T07:30:59.695Z,96216.14
2018-09-17T07:33:34.719Z,96218.22
2018-09-17T07:36:09.493Z,96215.25
2018-09-17T07:38:44.454Z,96207.70
2018-09-17T07:41:19.416Z,96213.22
2018-09-17T07:43:53.830Z,96203.78
2018-09-17T07:46:28.927Z,96208.48
2018-09-17T07:49:04.180Z,96205.70
2018-09-17T07:51:38.654Z,96203.39
2018-09-17T07:54:13.127Z,96195.99
2018-09-17T07:56:47.971Z,96191.07
2018-09-17T07:59:22.680Z,96195.47
2018-09-17T08:01:57.244Z,96185.25
2018-09-17T08:04:32.039Z,96177.77
2018-09-17T08:07:07.320Z,96179.39
2018-09-17T08:09:42.137Z,96175.37
2018-09-17T08:12:16.400Z,96174.67
2018-09-17T08:14:50.826Z,96183.05
2018-09-17T08:17:25.363Z,96176.48
2018-09-17T08:19:59.887Z,96177.47
2018-09-17T08:22:34.371Z,96182.13
2018-09-17T08:25:09.879Z,96182.16
2018-09-17T08:27:44.295Z,96186.41
2018-09-17T08:30:19.262Z,96188.50
2018-09-17T08:32:54.124Z,96190.72
2018-09-17T08:35:29.424Z,96192.08
2018-09-17T08:38:04.227Z,96191.86
2018-09-17T08:40:38.830Z,96195.20
2018-09-17T08:43:13.576Z,96185.67
2018-09-17T08:45:48.076Z,96192.41
2018-09-17T08:48:22.347Z,96186.08
2018-09-17T08:50:57.159Z,96186.42
2018-09-17T08:53:31.796Z,96187.52
2018-09-17T08:56:12.244Z,96179.97
2018-09-17T08:58:52.608Z,96174.94
2018-09-17T09:01:34.288Z,96175.65
2018-09-17T09:04:14.166Z,96175.70
2018-09-17T09:06:55.960Z,96176.55
2018-09-17T09:09:30.316Z,96168.08
2018-09-17T09:12:10.811Z,96166.48
2018-09-17T09:14:45.977Z,96159.50
2018-09-17T09:17:20.739Z,96165.26
2018-09-17T09:19:55.319Z,96162.97
2018-09-17T09:22:29.919Z,96156.27
2018-09-17T09:25:04.768Z,96155.54
2018-09-17T09:27:39.104Z,96161.16
2018-09-17T09:30:13.543Z,96161.80
2018-09-17T09:32:48.708Z,96161.83
2018-09-17T09:35:23.484Z,96157.90
2018-09-17T09:37:58.036Z,96155.55
2018-09-17T09:40:32.603Z,96153.72
2018-09-17T09:43:07.639Z,96149.77
2018-09-17T09:45:43.425Z,96146.06
2018-09-17T09:48:18.048Z,96143.11
2018-09-17T09:50:52.552Z,96140.97
2018-09-17T09:53:27.383Z,96146.31
2018-09-17T09:56:02.051Z,96147.66
2018-09-17T09:58:36.536Z,96145.50
2018-09-17T10:01:16.467Z,96141.22
2018-09-17T10:03:56.369Z,96141.72
2018-09-17T10:06:30.959Z,96137.45
2018-09-17T10:09:12.832Z,96125.39
2018-09-17T10:11:52.588Z,96125.69
2018-09-17T10:14:32.503Z,96126.00
2018-09-17T10:18:16.255Z,96128.14
2018-09-17T10:20:51.097Z,96127.33
2018-09-17T10:23:25.435Z,96110.21
2018-09-17T10:26:00.296Z,96111.50
2018-09-17T10:28:35.399Z,96104.28
2018-09-17T10:31:09.941Z,96103.75
2018-09-17T10:33:44.316Z,96099.44
2018-09-17T10:36:19.796Z,96097.53
2018-09-17T10:38:54.425Z,96095.44
2018-09-17T10:41:28.942Z,96091.43
2018-09-17T10:44:04.332Z,96087.88
2018-09-17T10:46:39.036Z,96081.84
2018-09-17T10:49:13.751Z,96078.11
2018-09-17T10:51:48.074Z,96084.37
2018-09-17T10:54:22.495Z,96084.20
2018-09-17T10:56:56.949Z,96076.23
2018-09-17T10:59:31.211Z,96086.80
2018-09-17T11:02:06.435Z,96073.33
2018-09-17T11:04:41.177Z,96066.40
2018-09-17T11:07:15.463Z,96072.83
2018-09-17T11:09:55.127Z,96068.30
2018-09-17T11:12:30.425Z,96060.78
2018-09-17T11:15:05.702Z,96059.17
2018-09-17T11:17:40.298Z,96061.27
2018-09-17T11:20:15.244Z,96059.94
2018-09-17T11:22:49.660Z,96047.89
2018-09-17T11:25:23.955Z,96043.27
2018-09-17T11:27:58.415Z,96045.44
2018-09-17T11:30:32.956Z,96047.55
2018-09-17T11:33:08.351Z,96038.81
2018-09-17T11:35:43.828Z,96038.88
2018-09-17T11:38:18.516Z,96035.77
2018-09-17T11:40:52.979Z,96032.87
2018-09-17T11:43:28.007Z,96033.11
2018-09-17T11:46:02.461Z,96034.09
2018-09-17T11:48:36.899Z,96031.38
2018-09-17T11:51:11.543Z,96025.88
2018-09-17T11:53:46.183Z,96019.09
2018-09-17T11:56:21.392Z,96021.99
2018-09-17T11:58:55.943Z,96020.53
2018-09-17T12:01:36.354Z,96022.91
2018-09-17T12:04:14.156Z,96018.62
2018-09-17T12:06:53.896Z,96015.89
2018-09-17T12:09:29.204Z,96012.92
2018-09-17T12:12:03.997Z,96014.09
2018-09-17T12:14:38.511Z,96011.86
2018-09-17T12:17:12.927Z,96003.23
2018-09-17T12:19:47.628Z,96002.52
2018-09-17T12:22:22.283Z,96000.80
2018-09-17T12:24:57.019Z,96001.52
2018-09-17T12:27:31.942Z,95996.59
2018-09-17T12:30:06.767Z,96000.03
2018-09-17T12:32:41.215Z,95999.84
2018-09-17T12:35:15.835Z,96002.34
2018-09-17T12:37:50.203Z,96007.81
2018-09-17T12:40:26.139Z,96003.05
2018-09-17T12:43:00.732Z,95996.44
2018-09-17T12:45:35.104Z,95998.75
2018-09-17T12:48:09.351Z,95997.82
2018-09-17T12:50:44.444Z,95993.81
2018-09-17T12:53:18.950Z,95994.20
2018-09-17T12:55:53.707Z,95997.19
2018-09-17T12:58:28.756Z,95989.49
2018-09-17T13:01:03.706Z,95986.85
2018-09-17T13:03:39.051Z,95989.33
2018-09-17T13:06:13.703Z,95979.06
2018-09-17T13:08:48.293Z,95979.08
2018-09-17T13:11:23.252Z,95974.27
2018-09-17T13:13:58.416Z,95974.30
2018-09-17T13:16:33.131Z,95972.23
2018-09-17T13:19:10.256Z,95965.62
2018-09-17T13:21:44.647Z,95964.88
2018-09-17T13:24:19.422Z,95963.95
2018-09-17T13:26:54.139Z,95961.00
2018-09-17T13:29:28.904Z,95956.05
2018-09-17T13:32:06.040Z,95956.75
2018-09-17T13:34:40.870Z,95963.58
2018-09-17T13:37:15.448Z,95955.91
2018-09-17T13:39:50.121Z,95955.71
2018-09-17T13:42:25.823Z,95952.13
2018-09-17T13:45:00.868Z,95956.30
2018-09-17T13:47:35.567Z,95945.91
2018-09-17T13:50:10.124Z,95953.75
2018-09-17T13:52:45.052Z,95950.69
2018-09-17T13:55:20.217Z,95943.55
2018-09-17T13:57:55.166Z,95947.41
2018-09-17T14:00:31.088Z,95946.14
2018-09-17T14:03:07.978Z,95948.02
2018-09-17T14:05:43.105Z,95941.87
2018-09-17T14:08:17.757Z,95934.05
2018-09-17T14:10:52.208Z,95942.12
2018-09-17T14:13:26.688Z,95935.18
2018-09-17T14:16:12.739Z,95924.72
2018-09-17T14:18:47.573Z,95929.45
2018-09-17T14:21:22.171Z,95926.52
2018-09-17T14:23:56.909Z,95929.90
2018-09-17T14:26:31.620Z,95925.45
2018-09-17T14:29:06.463Z,95924.45
2018-09-17T14:31:46.783Z,95926.08
2018-09-17T14:34:21.292Z,95926.12
2018-09-17T14:36:56.368Z,95915.16
2018-09-17T14:39:31.345Z,95923.91
2018-09-17T14:42:06.847Z,95915.34
2018-09-17T14:44:41.323Z,95910.42
2018-09-17T14:47:16.495Z,95905.58
2018-09-17T14:49:50.903Z,95900.77
2018-09-17T14:52:26.099Z,95899.91
2018-09-17T14:55:01.159Z,95896.44
2018-09-17T14:57:35.675Z,95891.77
2018-09-17T15:00:09.980Z,95888.61
2018-09-17T15:02:44.890Z,95891.09
2018-09-17T15:05:19.526Z,95889.28
2018-09-17T15:07:54.135Z,95888.89
2018-09-17T15:10:29.029Z,95887.72
2018-09-17T15:13:04.111Z,95887.41
2018-09-17T15:15:44.283Z,95882.02
2018-09-17T15:18:18.811Z,95889.48
2018-09-17T15:20:54.095Z,95883.34
2018-09-17T15:23:28.643Z,95885.34
2018-09-17T15:26:03.285Z,95875.80
2018-09-17T15:28:38.586Z,95877.75
2018-09-17T15:31:13.354Z,95876.87
2018-09-17T15:33:48.294Z,95877.03
2018-09-17T15:36:24.869Z,95869.99
2018-09-17T15:38:59.669Z,95865.16
2018-09-17T15:41:35.185Z,95863.41
2018-09-17T15:44:10.280Z,95860.81
2018-09-17T15:46:44.996Z,95855.81
2018-09-17T15:49:19.761Z,95867.63
2018-09-17T15:51:54.512Z,95858.62
2018-09-17T15:54:29.315Z,95865.97
2018-09-17T15:57:04.487Z,95864.70
2018-09-17T15:59:38.988Z,95857.58
2018-09-17T16:02:13.619Z,95852.83
2018-09-17T16:04:47.905Z,95846.48
2018-09-17T16:07:22.617Z,95848.33
2018-09-17T16:09:57.131Z,95858.77
2018-09-17T16:12:31.687Z,95854.80
2018-09-17T16:15:06.444Z,95848.98
2018-09-17T16:17:40.854Z,95858.36
2018-09-17T16:20:15.312Z,95852.27
2018-09-17T16:22:49.763Z,95858.44
2018-09-17T16:25:24.247Z,95856.88
2018-09-17T16:27:58.886Z,95859.29
2018-09-17T16:30:33.591Z,95854.50
2018-09-17T16:33:08.051Z,95851.59
2018-09-17T16:35:42.436Z,95850.81
2018-09-17T16:38:16.787Z,95855.63
2018-09-17T16:40:51.097Z,95857.47
2018-09-17T16:43:25.889Z,95861.15
2018-09-17T16:46:00.530Z,95861.42
2018-09-17T16:48:35.007Z,95861.13
2018-09-17T16:51:09.831Z,95863.19
2018-09-17T16:53:45.050Z,95860.75
2018-09-17T16:56:19.838Z,95865.27
2018-09-17T16:58:55.074Z,95859.62
2018-09-17T17:01:30.648Z,95859.56
2018-09-17T17:04:05.270Z,95854.43
2018-09-17T17:06:40.089Z,95852.19
2018-09-17T17:09:14.579Z,95854.51
2018-09-17T17:11:49.279Z,95850.69
2018-09-17T17:14:24.077Z,95847.14
2018-09-17T17:16:58.695Z,95852.58
2018-09-17T17:19:33.411Z,95855.64
2018-09-17T17:22:08.096Z,95855.52
2018-09-17T17:24:42.973Z,95853.92
2018-09-17T17:27:17.232Z,95855.47
2018-09-17T17:29:52.677Z,95857.78
2018-09-17T17:32:27.548Z,95855.83
2018-09-17T17:35:01.888Z,95852.28
2018-09-17T17:37:36.941Z,95854.02
2018-09-17T17:40:12.306Z,95852.33
2018-09-17T17:42:46.983Z,95857.72
2018-09-17T17:45:22.138Z,95856.09
2018-09-17T17:47:57.534Z,95859.69
2018-09-17T17:50:32.242Z,95855.09
2018-09-17T17:53:07.241Z,95856.49
2018-09-17T17:55:41.742Z,95863.30
2018-09-17T17:58:16.331Z,95868.26
2018-09-17T18:00:52.985Z,95869.95
2018-09-17T18:03:28.724Z,95871.95
2018-09-17T18:06:03.388Z,95871.77
2018-09-17T18:08:38.978Z,95870.62
2018-09-17T18:11:16.517Z,95870.48
2018-09-17T18:16:55.076Z,95872.09
2018-09-17T18:19:29.632Z,95877.27
2018-09-17T18:22:04.719Z,95876.27
2018-09-17T18:24:39.418Z,95877.20
2018-09-17T18:27:14.260Z,95876.53
2018-09-17T18:29:48.822Z,95879.01
2018-09-17T18:32:23.408Z,95877.47
2018-09-17T18:34:57.939Z,95881.07
2018-09-17T18:37:32.634Z,95883.05
2018-09-17T18:40:07.887Z,95882.12
2018-09-17T18:42:42.271Z,95885.61
2018-09-17T18:45:17.139Z,95881.73
2018-09-17T18:47:52.148Z,95880.20
2018-09-17T18:50:26.840Z,95889.66
2018-09-17T18:53:01.661Z,95885.53
2018-09-17T18:55:36.333Z,95888.31
2018-09-17T18:58:10.967Z,95887.40
2018-09-17T19:00:47.519Z,95895.51
2018-09-17T19:03:22.143Z,95888.53
2018-09-17T19:05:56.952Z,95887.61
2018-09-17T19:08:31.692Z,95895.44
2018-09-17T19:11:06.832Z,95895.80
2018-09-17T19:13:53.346Z,95884.09
2018-09-17T19:16:33.147Z,95880.85
2018-09-17T19:19:08.876Z,95882.19
2018-09-17T19:21:49.219Z,95883.05
2018-09-17T19:24:23.924Z,95882.72
2018-09-17T19:26:58.775Z,95878.30
2018-09-17T19:29:33.383Z,95877.37
2018-09-17T19:32:08.228Z,95874.06
2018-09-17T19:34:43.377Z,95864.18
2018-09-17T19:38:26.709Z,95868.50
2018-09-17T19:41:02.168Z,95866.48
2018-09-17T19:43:39.593Z,95866.84
2018-09-17T19:46:17.129Z,95871.52
2018-09-17T19:48:52.318Z,95874.75
2018-09-17T19:51:32.331Z,95875.61
2018-09-17T19:54:06.871Z,95876.73
2018-09-17T19:56:42.910Z,95878.75
2018-09-17T19:59:23.031Z,95877.84
2018-09-17T20:01:58.492Z,95875.01
2018-09-17T20:04:42.264Z,95882.29
2018-09-17T20:07:16.768Z,95880.28
2018-09-17T20:10:00.973Z,95890.69
2018-09-17T20:12:35.857Z,95883.64
2018-09-17T20:15:10.740Z,95882.17
2018-09-17T20:17:48.233Z,95884.72
2018-09-17T20:20:23.426Z,95881.96
2018-09-17T20:22:59.063Z,95881.80
2018-09-17T20:25:33.981Z,95880.70
2018-09-17T20:28:08.389Z,95878.23
2018-09-17T20:30:43.924Z,95873.56
2018-09-17T20:33:18.927Z,95876.87
2018-09-17T20:35:53.480Z,95873.84
2018-09-17T20:38:28.137Z,95867.45
2018-09-17T20:41:03.469Z,95869.09
2018-09-17T20:43:38.071Z,95872.08
2018-09-17T20:46:12.911Z,95866.40
2018-09-17T20:48:48.138Z,95865.53
2018-09-17T20:51:22.768Z,95860.98
2018-09-17T20:53:57.504Z,95862.91
2018-09-17T20:56:32.073Z,95859.59
2018-09-17T20:59:13.156Z,95858.45
2018-09-17T21:01:47.915Z,95857.88
2018-09-17T21:04:22.529Z,95859.77
2018-09-17T21:06:56.987Z,95853.98
2018-09-17T21:09:32.011Z,95859.59
2018-09-17T21:12:06.906Z,95855.07
2018-09-17T21:14:41.583Z,95850.38
2018-09-17T21:17:16.373Z,95858.45
2018-09-17T21:19:51.820Z,95847.70
2018-09-17T21:22:26.800Z,95849.40
2018-09-17T21:25:01.888Z,95846.13
2018-09-17T21:27:36.976Z,95847.16
2018-09-17T21:30:12.056Z,95843.27
2018-09-17T21:32:46.935Z,95842.18
2018-09-17T21:35:22.052Z,95841.02
2018-09-17T21:37:57.538Z,95848.63
2018-09-17T21:40:32.491Z,95838.33
2018-09-17T21:43:07.180Z,95837.30
2018-09-17T21:45:41.704Z,95840.72
2018-09-17T21:48:16.340Z,95840.94
2018-09-17T21:50:51.299Z,95844.36
2018-09-17T21:53:25.805Z,95843.64
2018-09-17T21:56:00.607Z,95839.63
2018-09-17T21:58:35.082Z,95841.66
2018-09-17T22:01:10.608Z,95839.98
2018-09-17T22:03:45.191Z,95826.92
2018-09-17T22:06:19.855Z,95829.45
2018-09-17T22:08:54.160Z,95826.70
2018-09-17T22:11:28.679Z,95825.14
2018-09-17T22:14:03.329Z,95817.63
2018-09-17T22:16:37.875Z,95811.05
2018-09-17T22:19:12.388Z,95818.28
2018-09-17T22:21:47.651Z,95816.97
2018-09-17T22:24:22.294Z,95817.67
2018-09-17T22:26:59.276Z,95813.15
2018-09-17T22:29:33.751Z,95813.15
2018-09-17T22:32:08.548Z,95810.16
2018-09-17T22:34:44.245Z,95818.41
2018-09-17T22:37:18.532Z,95812.77
2018-09-17T22:39:53.259Z,95818.67
2018-09-17T22:42:28.331Z,95811.95
2018-09-17T22:45:02.743Z,95811.59
2018-09-17T22:47:37.184Z,95804.08
2018-09-17T22:50:11.743Z,95810.80
2018-09-17T22:52:46.496Z,95805.14
2018-09-17T22:55:21.052Z,95803.97
2018-09-17T22:57:56.003Z,95807.55
2018-09-17T23:00:30.339Z,95802.33
2018-09-17T23:03:05.207Z,95807.26
2018-09-17T23:05:40.050Z,95803.83
2018-09-17T23:08:14.564Z,95807.91
2018-09-17T23:10:49.177Z,95801.86
2018-09-17T23:13:23.604Z,95802.16
2018-09-17T23:15:58.531Z,95804.33
2018-09-17T23:18:32.899Z,95794.34
2018-09-17T23:21:07.785Z,95799.48
2018-09-17T23:23:42.279Z,95798.82
2018-09-17T23:26:17.573Z,95789.62
2018-09-17T23:28:51.954Z,95793.13
2018-09-17T23:31:26.717Z,95792.53
2018-09-17T23:34:01.632Z,95797.06
2018-09-17T23:36:36.063Z,95804.06
2018-09-17T23:39:11.574Z,95802.78
2018-09-17T23:41:46.173Z,95797.88
2018-09-17T23:44:20.483Z,95801.30
2018-09-17T23:46:55.431Z,95798.89
2018-09-17T23:49:29.892Z,95804.88
2018-09-17T23:52:04.615Z,95802.76
2018-09-17T23:54:39.388Z,95801.92
2018-09-17T23:57:13.956Z,95801.84
2018-09-17T23:59:48.687Z,95794.27
